Tiempo atmosférico en la estación meteorológica de La Covatilla, estación de esquí, Salamanca (1960 m.)



Fecha
DESCASC
Temp. máxima en grados centígrados (hora)
DESCASC
Temp. mínima en grados centígrados (hora)
DESCASC
Temp. media en grados centígrados
DESCASC
Racha de viento máxima en m/sg (hora)
DESCASC
Velocidad máxima media en intervalos de 10 minutos(hora)
DESCASC
Precipitaciones diarias en mm
DESCASC
Precipitaciones de 00:00 a 06:00 en mm
DESCASC
Precipitaciones de 06:00 a 12:00 en mm
DESCASC
Precipitaciones de 12:00 a 18:00 en mm
DESCASC
Precipitaciones de 18:00 a 24:00 en mm
DESCASC
08-12-2019 5.2 (16:00) 0.5 (05:50) 2.8 8.33 (13:30) 5.83 (10:50) 6.4 0 0 3.8 2.6
07-12-2019 9.6 (14:00) 0 (04:20) 4.8 5.83 (00:20) 4.17 (00:10) 0 0 0 0 0
06-12-2019 4.3 (11:10) -0.2 (02:10) 2.1 12.22 (00:10) 9.72 (00:10) 0 0 0 0 0
05-12-2019 1.6 (15:20) -2.8 (-00:0) -0.6 16.11 (07:50) 12.78 (07:40) 0.8 0 0 0.8 0
04-12-2019 1.7 (10:50) -2.4 (01:50) -0.4 17.5 (21:00) 13.61 (21:00) 0.6 0 0 0.6 0
03-12-2019 3.9 (14:40) -4 (-00:0) 0 9.72 (22:30) 6.11 (22:50) 9.8 0 0.6 9.2 0
02-12-2019 -1.1 (23:50) -3 (-00:0) -2.1 18.61 (05:00) 15.28 (04:00) 0 0 0 0 0
01-12-2019 2.4 (14:20) -1.7 (-00:0) 0.4 20 (03:40) 14.72 (05:10) 8 0 0 8 0
30-11-2019 5.4 (00:50) -1.5 (-00:0) 2 25.28 (14:30) 16.39 (14:10) 19.8 0 0 12.4 7.4
29-11-2019 6.2 (16:10) 4.4 (00:00) 5.3 18.89 (02:30) 12.5 (02:40) 10.2 1.6 7.2 1.4 0
28-11-2019 6 (16:10) 1.3 (00:20) 3.6 23.33 (16:30) 16.39 (18:40) 0.2 0 0 0 0.2
27-11-2019 3.7 (00:00) -0.5 (-00:0) 1.6 20.56 (01:40) 13.33 (02:30) 8.2 8 0 0 0.2
26-11-2019 8.2 (10:40) 2.9 (00:00) 5.5 29.17 (15:50) 21.11 (17:10) 23.4 0 0.4 12 11
25-11-2019 7.8 (14:00) 2.7 (08:30) 5.3 31.11 (01:30) 19.17 (01:30) 1.6 1.6 0 0 0
24-11-2019 5.3 (22:50) -6 (-00:0) -0.3 26.67 (23:30) 18.89 (23:20) 14.4 0 0 14 0.4
23-11-2019 -0.7 (00:00) -3.9 (-00:0) -2.3 20.28 (00:10) 12.5 (00:10) 0 0 0 0 0
22-11-2019 4.3 (12:50) -0.7 (-00:0) 1.8 30.83 (13:00) 22.22 (09:50) 19 1.6 13.2 2.6 1.6
21-11-2019 0.7 (22:20) -1.6 (-00:0) -0.5 18.89 (05:40) 12.5 (05:40) 3.4 0 0.4 3 0
20-11-2019 1.7 (02:50) -1.8 (23:10) 0 15.28 (13:50) 10.83 (13:50) 1 0.6 0.2 0.2 0
19-11-2019 1.7 (14:30) -6.6 (-00:0) -2.4 6.11 (04:10) 4.44 (21:20) 0 0 0 0 0
18-11-2019 -0.6 (14:00) -4.1 (-00:0) -2.3 9.17 (03:50) 6.67 (20:00) 2.6 0 1.6 1 0
17-11-2019 1.8 (14:10) -4.9 (00:00) -1.6 -- (--) -- (--) 26.8 0 8.4 13.4 5
16-11-2019 0.2 (12:10) -6.4 (19:20) -3.1 -- (--) -- (--) 5.4 0 1.2 4.2 0
15-11-2019 -1 (13:00) -6 (05:50) -3.5 -- (--) -- (--) 0 0 0 0 0

Gráficas

Temp. máximas Temp. mínimas Temp. medias Precipitaciones Rachas de viento máximas Velocidades máximas media en intervalos de 10 minutos

Datos horarios

Fecha y hora oficial Temperatura (ºC) Velocidad del viento (km/h) Dirección del viento Racha (km/h) Dirección de racha Precipitación (mm) Presión (hPa) Tendencia (hPa) Humedad (%)
2019-12-09 23:00:00 3.3 9 Este 17 Este 0 814 -0.1 30
2019-12-09 22:00:00 3.1 6 Nordeste 13 Nordeste 0 814 0.2 36
2019-12-09 21:00:00 3.7 6 Este 15 Este 0 814.2 0.9 28
2019-12-09 20:00:00 1.9 3 Este 9 Este 0 814.1 0.6 35
2019-12-09 19:00:00 2.4 5 Sur 11 Sudeste 0 813.8 0.2 41
2019-12-09 18:00:00 3.7 7 Sudeste 15 Sudeste 0 813.3 -0.2 30
2019-12-09 17:00:00 4.4 4 Norte 16 Norte 0 813.5 -0.4 32
2019-12-09 16:00:00 5.8 6 Nordeste 31 Noroeste 0 813.6 -0.7 30
2019-12-09 15:00:00 6.8 12 Nordeste 23 Nordeste 0 813.5 -1.1 27
2019-12-09 14:00:00 6.3 12 Nordeste 32 Nordeste 0 813.9 -0.6 24
2019-12-09 13:00:00 5.7 21 Nordeste 32 Nordeste 0 814.3 0.3 26
2019-12-09 12:00:00 5.9 18 Nordeste 30 Nordeste 0 814.6 1 26
2019-12-09 11:00:00 5.3 11 Este 22 Este 0 814.5 1.2 20
2019-12-09 10:00:00 2.6 6 Sudeste 15 Nordeste 0 814 1 24
2019-12-09 09:00:00 3.9 6 Sur 13 Sur 0 813.6 1 16
2019-12-09 08:00:00 1.1 5 Noroeste 13 Norte 0 813.3 0.9 28
2019-12-09 07:00:00 1.2 4 Norte 14 Este 0 813 0.4 30
2019-12-09 06:00:00 2.1 10 Este 19 Nordeste 0 812.6 0 22
2019-12-09 05:00:00 1.3 4 Este 12 Este 0 812.4 0 34
2019-12-09 04:00:00 2.4 7 Este 15 Este 0 812.6 0.3 26
2019-12-09 03:00:00 1.6 4 Nordeste 17 Norte 0 812.6 0.5 43
2019-12-09 02:00:00 1.7 4 Noroeste 13 Norte 0 812.4 0.6 38
2019-12-09 01:00:00 1.3 6 Noroeste 14 Noroeste 0 812.3 0.6 86
2019-12-09 00:00:00 1.4 6 Sudeste 15 Sur 0 812.1 0.6 100
2019-12-08 23:00:00 3.5 3 Sudoeste 18 Noroeste 0 811.8 0.7 100
2019-12-08 22:00:00 3.9 12 Oeste 22 Oeste 0.2 811.7 1 100
2019-12-08 21:00:00 4.1 10 Oeste 21 Oeste 0.8 811.5 1.2 100
2019-12-08 20:00:00 4.2 9 Oeste 29 Oeste 0.8 811.1 0.9 100
2019-12-08 19:00:00 4.5 14 Oeste 25 Oeste 0.8 810.7 0.5 99
2019-12-08 18:00:00 4.7 10 Oeste 29 Oeste 0 810.3 0.2 99
2019-12-08 17:00:00 4.6 12 Oeste 28 Oeste 0.2 810.2 0.3 99
2019-12-08 16:00:00 5.1 12 Noroeste 25 Noroeste 3 810.2 0 99
2019-12-08 15:00:00 3.6 14 Oeste 26 Sudoeste 0.6 810.1 -0.5 98
2019-12-08 14:00:00 4.4 19 Sudoeste 30 Oeste 0 809.9 -0.6 98
2019-12-08 13:00:00 4.9 20 Sudoeste 30 Sudoeste 0 810.2 0 95
2019-12-08 12:00:00 4.7 19 Sudoeste 29 Sudoeste 0 810.6 0.6 94
2019-12-08 11:00:00 3.8 19 Sudoeste 25 Sudoeste 0 810.5 0.7 99
2019-12-08 10:00:00 3.1 15 Sudoeste 21 Sudoeste 0 810.2 0.8 99
2019-12-08 09:00:00 2.9 10 Oeste 20 Oeste 0 810 0.9 97
2019-12-08 08:00:00 2.6 12 Oeste 24 Oeste 0 809.8 0.5 96
2019-12-08 07:00:00 1.4 13 Sudoeste 19 Sudoeste 0 809.4 -0.1 95
2019-12-08 06:00:00 0.7 17 Sudoeste 22 Sudoeste 0 809.1 -0.4 88
2019-12-08 05:00:00 0.7 15 Sudoeste 18 Sudoeste 0 809.3 -0.2 80
2019-12-08 04:00:00 1.1 15 Oeste 25 Sudoeste 0 809.5 -0.3 91
2019-12-08 03:00:00 2.3 15 Sudoeste 23 Sur 0 809.5 -0.7 91
2019-12-08 02:00:00 2 17 Sudoeste 20 Sudoeste 0 809.5 -0.5 86
2019-12-08 01:00:00 3.2 15 Sudoeste 21 Sudoeste 0 809.8 -0.1 82
2019-12-08 00:00:00 2.4 15 Sudoeste 18 Sudoeste 0 810.2 0.6 79
2019-12-07 23:00:00 1.1 10 Sudoeste 14 Sur 0 810 0.5 83
2019-12-07 22:00:00 1.3 10 Sudoeste 15 Sur 0 809.9 0.9 70
2019-12-07 21:00:00 1.5 9 Sudoeste 13 Sur 0 809.6 0.9 66
2019-12-07 20:00:00 1.4 8 Sudoeste 11 Oeste 0 809.5 1.2 62
2019-12-07 19:00:00 1.5 6 Sur 9 Sur 0 809 0.8 63
2019-12-07 18:00:00 1.4 5 Sur 10 Sudeste 0 808.7 0.6 56
2019-12-07 17:00:00 4.3 5 Sudeste 9 Sudeste 0 808.3 0 50
2019-12-07 16:00:00 6 4 Sur 8 Sudoeste 0 808.2 -0.5 60
2019-12-07 15:00:00 8.4 3 Este 8 Nordeste 0 808.1 -0.9 60
2019-12-07 14:00:00 9.6 2 Sur 14 Este 0 808.3 -0.5 49
2019-12-07 13:00:00 7 9 Este 15 Sudeste 0 808.7 0.2 46
2019-12-07 12:00:00 6.4 11 Este 20 Sudeste 0 809 0.8 41
2019-12-07 11:00:00 4.8 13 Sudeste 17 Este 0 808.8 0.8 43
2019-12-07 10:00:00 4.4 11 Este 17 Este 0 808.5 0.8 41
2019-12-07 09:00:00 2.3 9 Sudeste 15 Sudeste 0 808.2 0.8 56
2019-12-07 08:00:00 1.9 7 Sudeste 13 Sudeste 0 808 0.6 61
2019-12-07 07:00:00 1.7 8 Sudeste 14 Sudeste 0 807.7 0 61
2019-12-07 06:00:00 1.5 10 Sudeste 14 Sudeste 0 807.4 -0.1 63
2019-12-07 05:00:00 1.6 6 Sudeste 13 Sudeste 0 807.4 -0.2 65
2019-12-07 04:00:00 1.6 3 Sur 14 Sudeste 0 807.7 0 61
2019-12-07 03:00:00 2.5 8 Sudeste 12 Sudeste 0 807.5 -0.3 56
2019-12-07 02:00:00 1.2 5 Este 16 Sudeste 0 807.6 0 61
2019-12-07 01:00:00 2.2 13 Sudeste 21 Este 0 807.7 0.1 55
2019-12-07 00:00:00 3.7 15 Este 25 Sudeste 0 807.8 0.6 50
2019-12-06 23:00:00 2.1 22 Sudeste 26 Sudeste 0 807.6 0.9 67
2019-12-06 22:00:00 0.9 9 Este 19 Este 0 807.6 1.2 76
2019-12-06 21:00:00 2.5 14 Este 27 Este 0 807.2 0.9 66
2019-12-06 20:00:00 1.9 18 Este 24 Este 0 806.7 0.6 72
2019-12-06 19:00:00 1.8 15 Este 18 Este 0 806.4 0.3 82
2019-12-06 18:00:00 1.9 13 Este 22 Este 0 806.3 0 79
2019-12-06 17:00:00 2.5 15 Este 21 Este 0 806.1 -0.5 73
2019-12-06 16:00:00 3.7 13 Este 27 Este 0 806.1 -0.8 73
2019-12-06 15:00:00 3.8 16 Este 26 Este 0 806.3 -0.9 69
2019-12-06 14:00:00 3.7 14 Este 26 Este 0 806.6 -0.4 73
2019-12-06 13:00:00 3.8 15 Este 22 Este 0 806.9 0.2 68
2019-12-06 12:00:00 4 10 Este 24 Este 0 807.2 1.1 70
2019-12-06 11:00:00 3.7 19 Este 27 Sudeste 0 807 1.1 64
2019-12-06 10:00:00 1.7 16 Este 23 Este 0 806.7 1.2 79
2019-12-06 09:00:00 0.8 20 Sudeste 23 Sudeste 0 806.1 0.9 83
2019-12-06 08:00:00 0.1 13 Este 21 Este 0 805.9 0.8 88
2019-12-06 07:00:00 0.1 10 Este 25 Este 0 805.5 0.5 91
2019-12-06 06:00:00 0.7 18 Este 28 Este 0 805.2 0.1 89
2019-12-06 05:00:00 0.3 13 Este 18 Este 0 805.1 -0.1 88
2019-12-06 04:00:00 0.6 16 Sudeste 21 Sudeste 0 805 0 87
2019-12-06 03:00:00 -0.1 12 Sudeste 19 Sudeste 0 805.1 0.7 93
2019-12-06 02:00:00 0.3 9 Sudeste 29 Sudeste 0 805.2 0.6 94
2019-12-06 01:00:00 0.3 25 Sur 44 Sudeste 0 805 0.6 95
2019-12-06 00:00:00 -0.1 34 Sudeste 48 Sudeste 0 804.4 0.4 --
2019-12-05 23:00:00 -0.1 35 Este 47 Este 0 804.6 0.8 --
2019-12-05 22:00:00 -0.2 34 Este 46 Este 0 804.4 1.4 --
2019-12-05 21:00:00 -0.1 37 Este 45 Este 0 804 1.4 --
2019-12-05 20:00:00 -0.4 31 Este 45 Este 0 803.8 1.6 --
2019-12-05 19:00:00 -0.2 36 Este 46 Este 0 803 0.9 100
2019-12-05 18:00:00 0.2 34 Este 51 Este 0 802.6 0.6 100
2019-12-05 17:00:00 0.3 37 Este 51 Este 0 802.2 0.4 98
2019-12-05 16:00:00 0.4 27 Este 50 Este 0.2 802.1 0.1 98
2019-12-05 15:00:00 0.8 33 Este 55 Este 0 802 0 95
2019-12-05 14:00:00 0.2 35 Este 46 Este 0.4 801.8 0.1 100
2019-12-05 13:00:00 0.3 32 Este 42 Este 0.2 802 0.8 99
2019-12-05 12:00:00 0.1 32 Este 48 Este 0 802 1.5 99
2019-12-05 11:00:00 -0.2 31 Este 45 Este 0 801.7 1.9 100
2019-12-05 10:00:00 -0.2 33 Este 45 Este 0 801.2 1.7 99
2019-12-05 09:00:00 -0.2 32 Sudeste 54 Este 0 800.5 1.2 93
2019-12-05 08:00:00 1 40 Este 58 Este 0 799.8 0.7 87
2019-12-05 07:00:00 -2.7 20 Este 42 Este 0 799.5 0.1 98
2019-12-05 06:00:00 -0.8 27 Este 45 Este 0 799.3 0.4 80
2019-12-05 05:00:00 -0.2 26 Sudeste 36 Sudeste 0 799.1 0.2 67
2019-12-05 04:00:00 0.1 24 Este 38 Este 0 799.4 0.6 80
2019-12-05 03:00:00 0.2 30 Este 42 Este 0 798.9 0.8 99
2019-12-05 02:00:00 -0.1 25 Este 40 Este 0 798.9 1.6 97
2019-12-05 01:00:00 0.5 27 Este 51 Este 0 798.8 1.8 --
2019-12-05 00:00:00 0.6 39 Este 55 Este 0 798.1 1.4 --
2019-12-04 23:00:00 0.4 45 Este 59 Este 0 797.3 0.8 --
2019-12-04 22:00:00 0.1 46 Este 62 Este 0 797 0.9 --
2019-12-04 21:00:00 -0.3 49 Este 63 Este 0 796.7 0.9 --
2019-12-04 20:00:00 -0.4 47 Este 60 Este 0 796.5 1 --
2019-12-04 19:00:00 -0.2 41 Este 51 Este 0 796.1 0.9 --
2019-12-04 18:00:00 -0.2 34 Este 48 Este 0 795.8 0.8 --
2019-12-04 17:00:00 -0.1 29 Este 42 Este 0 795.5 0.3 100
2019-12-04 16:00:00 0 27 Este 40 Este 0.2 795.2 -0.3 99
2019-12-04 15:00:00 0.5 30 Este 41 Este 0.4 795 -1.1 98
2019-12-04 14:00:00 0.5 26 Este 36 Este 0 795.2 -1 98
2019-12-04 13:00:00 0.8 23 Este 33 Este 0 795.5 -0.3 95
2019-12-04 12:00:00 0.3 20 Sudeste 31 Sudeste 0 796.1 0.6 92
2019-12-04 11:00:00 0.3 18 Este 25 Este 0 796.2 0.8 87
2019-12-04 10:00:00 0.8 18 Este 31 Este 0 795.8 0.3 83
2019-12-04 09:00:00 -0.9 24 Este 30 Este 0 795.5 -0.3 91
2019-12-04 08:00:00 -1.6 19 Este 24 Sudeste 0 795.4 -0.8 98
2019-12-04 07:00:00 -1.3 11 Sudeste 23 Sudeste 0 795.5 -0.9 98
2019-12-04 06:00:00 -1.7 17 Sudeste 23 Sudeste 0 795.8 -1.1 94
2019-12-04 05:00:00 -1.9 15 Sudeste 23 Este 0 796.2 -1 92
2019-12-04 04:00:00 -1.6 17 Este 21 Este 0 796.4 -1.2 99
2019-12-04 03:00:00 -1.3 11 Sur 26 Sudeste 0 796.9 -1 89
2019-12-04 02:00:00 -2.2 13 Sudeste 25 Sur 0 797.2 -0.7 96
2019-12-04 01:00:00 -1.9 19 Sudeste 27 Sur 0 797.6 -0.3 90
2019-12-04 00:00:00 -1.8 18 Sur 26 Sur 0 797.9 0.1 85
2019-12-03 23:00:00 -2 20 Sur 35 Sur 0 797.9 0.2 90
2019-12-03 22:00:00 -1.8 15 Sur 23 Sur 0 797.9 0.4 85
2019-12-03 21:00:00 -2.8 8 Sur 14 Sur 0 797.8 0.2 82
2019-12-03 20:00:00 -3.6 6 Sur 14 Sur 0 797.7 0 81
2019-12-03 19:00:00 -4 7 Sur 12 Sur 0 797.5 -0.2 73
2019-12-03 18:00:00 -2.9 8 Sur 11 Sur 0 797.6 -0.1 70
2019-12-03 17:00:00 -1.1 6 Sur 13 Sur 0.4 797.7 -0.7 76
2019-12-03 16:00:00 2.8 4 Oeste 13 Sur 1.8 797.7 -1.1 98
2019-12-03 15:00:00 3.4 5 Sur 8 Sudeste 2.6 797.7 -1.9 97
2019-12-03 14:00:00 3.1 6 Sudeste 9 Sudeste 3 798.4 -1.4 98
2019-12-03 13:00:00 2.5 2 Sur 10 Sur 1.4 798.8 -1 97
2019-12-03 12:00:00 1.3 6 Sudoeste 12 Sur 0.6 799.6 -0.2 98
2019-12-03 11:00:00 0.3 5 Sur 10 Sudeste 0 799.8 -0.2 100
2019-12-03 10:00:00 -1.2 5 Sudeste 11 Sudeste 0 799.8 -0.1 100
2019-12-03 09:00:00 -3.1 6 Sudeste 12 Sudeste 0 799.8 -0.1 99
2019-12-03 08:00:00 -3.4 6 Sudeste 11 Sudeste 0 800 -0.2 99
2019-12-03 07:00:00 -3.5 6 Sudeste 14 Sudeste 0 799.9 -0.6 99
2019-12-03 06:00:00 -3 8 Sudeste 16 Este 0 799.9 -0.8 100
2019-12-03 05:00:00 -2.5 9 Este 18 Este 0 800.2 -0.7 100
2019-12-03 04:00:00 -2.1 14 Este 25 Este 0 800.5 -0.8 100
2019-12-03 03:00:00 -1.7 15 Este 28 Este 0 800.7 -0.8 --
2019-12-03 02:00:00 -1.1 21 Este 28 Este 0 800.9 -0.4 --
2019-12-03 01:00:00 -1.3 15 Este 22 Sudeste 0 801.3 -0.1 --
2019-12-03 00:00:00 -1.3 14 Este 34 Este 0 801.5 0.5 --
2019-12-02 23:00:00 -1.6 16 Este -- -- 0 801.3 0.4 --
2019-12-02 22:00:00 -1.7 26 Este 48 Este 0 801.4 1.4 --
2019-12-02 21:00:00 -1.6 32 Este 52 Este 0 801 1 --
2019-12-02 20:00:00 -1.4 33 Este 52 Este 0 800.9 1.5 --
2019-12-02 19:00:00 -1.4 43 Este 55 Este 0 800 1 --
2019-12-02 18:00:00 -1.5 38 Este 53 Este 0 800 1.7 --
2019-12-02 17:00:00 -1.5 45 Este 59 Este 0 799.4 0.7 100
2019-12-02 16:00:00 -1.7 45 Este 65 Este 0 799 0.1 100
2019-12-02 15:00:00 -2 50 Este 59 Este 0 798.3 -1 100
2019-12-02 14:00:00 -2 47 Este 56 Este 0 798.7 -0.3 100
2019-12-02 13:00:00 -2 40 Este 56 Este 0 798.9 0.7 100
2019-12-02 12:00:00 -2.2 42 Este 53 Este 0 799.3 1.7 100
2019-12-02 11:00:00 -2.6 41 Este 53 Este 0 799 1.9 100
2019-12-02 10:00:00 -2.8 42 Este 58 Este 0 798.2 1.7 100
2019-12-02 09:00:00 -2.8 43 Este 57 Este 0 797.6 1.2 100
2019-12-02 08:00:00 -2.6 46 Este 64 Este 0 797.1 1 100
2019-12-02 07:00:00 -2.4 53 Este 64 Este 0 796.5 0.5 100
2019-12-02 06:00:00 -2.1 49 Este 62 Este 0 796.4 0.4 100
2019-12-02 05:00:00 -1.9 54 Este 67 Nordeste 0 796.1 0.4 --
2019-12-02 04:00:00 -1.6 55 Este 66 Este 0 796 0.2 100
2019-12-02 03:00:00 -1.9 46 Este 63 Este 0 796 0 --
2019-12-02 02:00:00 -1.8 48 Este 57 Este 0 795.7 -0.3 --
2019-12-02 01:00:00 -1.9 42 Este 51 Nordeste 0 795.8 -0.3 --
2019-12-02 00:00:00 -1.7 40 Nordeste 52 Nordeste 0 796 0.1 --
2019-12-01 23:00:00 -1.2 37 Nordeste 49 Nordeste 0 796 0.1 --
2019-12-01 22:00:00 -0.8 34 Nordeste 47 Nordeste 0 796.1 0.5 --
2019-12-01 21:00:00 -0.6 32 Nordeste 43 Nordeste 0 795.9 0.5 --
2019-12-01 20:00:00 -0.7 29 Nordeste 38 Nordeste 0 795.9 0.7 --
2019-12-01 19:00:00 -0.7 24 Este 33 Nordeste 0 795.6 0.6 --
2019-12-01 18:00:00 -0.9 13 Este 27 Nordeste 0.2 795.4 0.5 100
2019-12-01 17:00:00 -0.4 12 Este 18 Nordeste 0.6 795.2 0.1 99
2019-12-01 16:00:00 0.2 10 Este 15 Este 1.8 795 -0.4 99
2019-12-01 15:00:00 0.8 9 Nordeste 14 Este 2.6 794.9 -0.9 96
2019-12-01 14:00:00 0.9 5 Sur 15 Oeste 1.2 795.1 -0.6 100
2019-12-01 13:00:00 0.2 5 Nordeste 13 Oeste 1.6 795.4 -0.1 100
2019-12-01 12:00:00 0.4 8 Oeste 28 Oeste 0 795.8 0.9 100
2019-12-01 11:00:00 0.2 9 Sudoeste 19 Sudoeste 0 795.7 1 100
2019-12-01 10:00:00 -0.8 17 Sudoeste 44 Oeste 0 795.5 0.9 --
2019-12-01 09:00:00 0 31 Sudoeste 53 Sudoeste 0 794.9 -0.3 99
2019-12-01 08:00:00 0.1 37 Sudoeste 60 Sudoeste 0 794.7 -0.6 97
2019-12-01 07:00:00 -0.1 40 Sudoeste 64 Sudoeste 0 794.6 -1.8 98
2019-12-01 06:00:00 -0.8 45 Sudoeste 72 Sudoeste 0 795.2 -2.2 98
2019-12-01 05:00:00 -0.4 42 Sudoeste 68 Sudoeste 0 795.3 -3 --
2019-12-01 04:00:00 -0.9 46 Sudoeste 72 Sudoeste 0 796.4 -2.9 100
2019-12-01 03:00:00 -0.4 41 Sudoeste 58 Sudoeste 0 797.4 -2.5 93
2019-12-01 02:00:00 -1.1 33 Sudoeste 51 Sudoeste 0 798.3 -1.9 76
2019-12-01 01:00:00 -1.5 29 Sudoeste 44 Sudoeste 0 799.3 -1.3 92
2019-12-01 00:00:00 -1.5 24 Sudoeste 44 Sudoeste 0 799.9 -0.9 79
2019-11-30 23:00:00 -1.1 24 Sudoeste 37 Sudoeste 0 800.2 -1.3 71
2019-11-30 22:00:00 -1 23 Sudoeste 43 Sudoeste 0 800.6 -0.9 67
2019-11-30 21:00:00 -1.4 31 Sudoeste 45 Sudoeste 0.2 800.8 -0.1 100
2019-11-30 20:00:00 0.1 27 Sudoeste 55 Sudoeste 1.8 801.5 0.7 --
2019-11-30 19:00:00 0.6 28 Sudoeste 54 Sudoeste 5.4 801.5 0.6 --
2019-11-30 18:00:00 3.9 39 Sudoeste 75 Sudoeste 2.4 800.9 0 100
2019-11-30 17:00:00 4 51 Sudoeste 78 Sudoeste 2 800.8 -0.6 100
2019-11-30 16:00:00 4.6 54 Sudoeste 87 Sudoeste 3 800.9 -1.6 100
2019-11-30 15:00:00 4.7 57 Sudoeste 91 Sudoeste 2 800.9 -2.6 100
2019-11-30 14:00:00 5 58 Sudoeste 82 Sudoeste 1.8 801.4 -2.3 100
2019-11-30 13:00:00 4.9 49 Sudoeste 78 Sudoeste 1.2 802.5 -1.2 100
2019-11-30 12:00:00 4.7 50 Sudoeste 80 Sudoeste 0 803.5 -0.5 100
2019-11-30 11:00:00 4.5 51 Sudoeste 76 Sudoeste 0 803.7 -0.9 100
2019-11-30 10:00:00 4.4 55 Sudoeste 79 Sudoeste 0 803.7 -1 100
2019-11-30 09:00:00 4.4 46 Sudoeste 67 Sudoeste 0 804 -0.9 100
2019-11-30 08:00:00 4.3 34 Sudoeste 59 Sudoeste 0 804.6 -0.9 100
2019-11-30 07:00:00 4.2 38 Sudoeste 57 Sudoeste 0 804.7 -1.2 100
2019-11-30 06:00:00 4.2 37 Sudoeste 52 Sudoeste 0 804.9 -1.1 100
2019-11-30 05:00:00 4.1 35 Sudoeste 54 Oeste 0 805.5 -0.6 100
2019-11-30 04:00:00 4.5 34 Sudoeste 53 Sudoeste 0 805.9 -0.6 100
2019-11-30 03:00:00 4.6 32 Sudoeste 49 Sudoeste 0 806 -1.1 100
2019-11-30 02:00:00 5.2 27 Sudoeste 47 Oeste 0 806.1 -0.9 99
2019-11-30 01:00:00 5.3 29 Sudoeste 44 Sudoeste 0 806.5 -0.4 99
2019-11-30 00:00:00 5 26 Sudoeste 39 Sudoeste 0 807.1 0.3 100
2019-11-29 23:00:00 5.1 22 Sudoeste 37 Sudoeste 0 807 0.3 100
2019-11-29 22:00:00 5.3 26 Sudoeste 44 Sudoeste 0 806.9 0.1 99
2019-11-29 21:00:00 5.2 20 Sudoeste 29 Sudoeste 0 806.8 0 99
2019-11-29 20:00:00 5.2 17 Sudoeste 28 Sur 0 806.7 0.2 99
2019-11-29 19:00:00 5.8 19 Sudoeste 32 Oeste 0 806.8 0.5 99
2019-11-29 18:00:00 5.7 21 Sudoeste 35 Sudoeste 0 806.8 0.2 99
2019-11-29 17:00:00 5.9 24 Sudoeste 35 Sudoeste 0 806.5 -0.4 99
2019-11-29 16:00:00 6.1 19 Sudoeste 31 Sudoeste 0 806.3 -1 99
2019-11-29 15:00:00 5.6 9 Oeste 17 Oeste 0.2 806.6 -0.7 99
2019-11-29 14:00:00 4.8 15 Sudoeste 30 Sudoeste 0.2 806.9 -0.1 100
2019-11-29 13:00:00 5.1 18 Oeste 31 Sudoeste 1 807.3 1 99
2019-11-29 12:00:00 5.5 19 Sudoeste 40 Sudoeste 1 807.3 1.8 99
2019-11-29 11:00:00 5.3 21 Sudoeste 43 Sudoeste 1.2 807 1.9 99
2019-11-29 10:00:00 5.2 29 Sudoeste 48 Sudoeste 0.8 806.3 1.3 99
2019-11-29 09:00:00 5.2 35 Sudoeste 50 Oeste 2.2 805.5 0.8 99
2019-11-29 08:00:00 5.2 30 Sudoeste 47 Sudoeste 1.6 805.1 1 99
2019-11-29 07:00:00 5.3 27 Sudoeste 43 Sudoeste 0.4 805 0.9 99
2019-11-29 06:00:00 5.4 29 Sudoeste 54 Sudoeste 0.6 804.7 1.2 99
2019-11-29 05:00:00 5.3 36 Sudoeste 57 Sudoeste 0.2 804.1 0.6 99
2019-11-29 04:00:00 5.3 33 Sudoeste 61 Sudoeste 0.4 804.1 0.6 99
2019-11-29 03:00:00 5.1 40 Sudoeste 68 Sudoeste 0.2 803.5 0.3 99
2019-11-29 02:00:00 4.9 40 Sudoeste 67 Sudoeste 0.2 803.5 0.7 99
2019-11-29 01:00:00 4.8 37 Sudoeste 57 Sudoeste 0 803.5 1.4 100
2019-11-29 00:00:00 4.5 35 Sudoeste 64 Sudoeste 0.2 803.2 1.3 100
2019-11-28 23:00:00 4.5 42 Sudoeste 68 Sudoeste 0 802.8 1.4 100
2019-11-28 22:00:00 4.2 50 Sudoeste 73 Sudoeste 0 802.1 0.9 100
2019-11-28 21:00:00 3.6 48 Sudoeste 76 Sudoeste 0 801.9 0.9 100
2019-11-28 20:00:00 3.3 53 Sudoeste 80 Sudoeste 0 801.4 0.6 100
2019-11-28 19:00:00 3.1 59 Sudoeste 83 Sudoeste 0 801.2 1.1 100
2019-11-28 18:00:00 3.7 49 Sudoeste 78 Sudoeste 0 801 0.5 100
2019-11-28 17:00:00 2.7 53 Sudoeste 84 Sudoeste 0 800.8 0 99
2019-11-28 16:00:00 5.6 51 Sudoeste 81 Sudoeste 0 800.1 -1.8 51
2019-11-28 15:00:00 4.4 53 Sudoeste 76 Sudoeste 0 800.5 -2.3 88
2019-11-28 14:00:00 4.6 55 Sudoeste 76 Sudoeste 0 800.8 -1.1 92
2019-11-28 13:00:00 4.4 47 Sudoeste 70 Sudoeste 0 801.9 0.2 83
2019-11-28 12:00:00 2.7 39 Sudoeste 66 Sudoeste 0 802.8 1.1 99
2019-11-28 11:00:00 4 36 Sudoeste 60 Sudoeste 0 801.9 0.4 78
2019-11-28 10:00:00 2.9 31 Sudoeste 54 Sudoeste 0 801.7 0.3 98
2019-11-28 09:00:00 2.2 33 Sudoeste 58 Sudoeste 0 801.7 0.5 96
2019-11-28 08:00:00 2.5 29 Sudoeste 56 Sudoeste 0 801.5 0.7 99
2019-11-28 07:00:00 1.7 31 Oeste 45 Oeste 0 801.4 0.5 100
2019-11-28 06:00:00 2.3 31 Sudoeste 54 Sudoeste 0 801.2 0.7 100
2019-11-28 05:00:00 2.8 33 Sudoeste 50 Sudoeste 0 800.8 0.1 100
2019-11-28 04:00:00 2.7 36 Sudoeste 59 Sudoeste 0 800.9 0.2 99
2019-11-28 03:00:00 3 42 Sudoeste 60 Sudoeste 0 800.5 -0.3 100
2019-11-28 02:00:00 2.2 30 Sudoeste 55 Sudoeste 0 800.7 0.5 100
2019-11-28 01:00:00 1.9 39 Sudoeste 55 Sudoeste 0 800.7 0.7 100
2019-11-28 00:00:00 1.4 32 Sudoeste 56 Sudoeste 0 800.8 1.2 100
2019-11-27 23:00:00 1.3 36 Sudoeste 62 Sudoeste 0 800.2 0.7 --
2019-11-27 22:00:00 1.3 39 Sudoeste 63 Sudoeste 0 800 1.1 100
2019-11-27 21:00:00 1.3 39 Sudoeste 59 Sudoeste 0.2 799.6 1.1 100
2019-11-27 20:00:00 1.1 35 Sudoeste 60 Sudoeste 0 799.5 1.2 --
2019-11-27 19:00:00 1.1 39 Sudoeste 67 Sudoeste 0 798.9 0.6 --
2019-11-27 18:00:00 1.4 38 Sudoeste 67 Sudoeste 0 798.5 -0.1 100
2019-11-27 17:00:00 1.2 37 Sudoeste 67 Sudoeste 0 798.3 -0.4 100
2019-11-27 16:00:00 1.1 34 Sudoeste 52 Sudoeste 0 798.3 -0.4 100
2019-11-27 15:00:00 1.1 36 Oeste 62 Sudoeste 0 798.6 -1.2 100
2019-11-27 14:00:00 1 33 Oeste 59 Sudoeste 0 798.7 -0.9 100
2019-11-27 06:00:00 -- -- -- -- -- -- -- -- --
2019-11-27 05:00:00 -- -- -- -- -- -- -- -- --
2019-11-27 04:00:00 -- -- -- -- -- -- -- -- --
2019-11-27 03:00:00 -- -- -- -- -- -- -- -- --
2019-11-27 02:00:00 -- -- -- -- -- -- -- -- --
2019-11-27 01:00:00 -- -- -- -- -- -- -- -- --
2019-11-27 00:00:00 -- -- -- -- -- -- -- -- --
2019-11-26 23:00:00 -- -- -- -- -- -- -- -- --
2019-11-26 22:00:00 -- -- -- -- -- -- -- -- --
2019-11-26 21:00:00 -- -- -- -- -- -- -- -- --
2019-11-26 20:00:00 -- -- -- -- -- -- -- -- --
2019-11-26 19:00:00 -- -- -- -- -- -- -- -- --
2019-11-26 18:00:00 -- -- -- -- -- -- -- -- --
2019-11-26 17:00:00 -- -- -- -- -- -- -- -- --
2019-11-26 16:00:00 -- -- -- -- -- -- -- -- --
2019-11-26 15:00:00 -- -- -- -- -- -- -- -- --
2019-11-26 14:00:00 -- -- -- -- -- -- -- -- --
2019-11-26 13:00:00 5.7 52 Sudoeste 86 Sudoeste 1 798.3 -1.7 98
2019-11-26 12:00:00 6.5 60 Sudoeste 86 Sudoeste 0.2 798.7 -0.8 96
2019-11-26 11:00:00 7.9 46 Sudoeste 81 Sudoeste 0 799.4 0 86
2019-11-26 10:00:00 6.8 46 Sudoeste 85 Sudoeste 0.2 800 0.5 84
2019-11-26 09:00:00 7.5 61 Sudoeste 87 Sudoeste 0 799.5 -0.9 54
2019-11-26 08:00:00 5.6 46 Sudoeste 81 Sudoeste 0 799.4 -1.8 98
2019-11-26 07:00:00 6 55 Sudoeste 81 Sudoeste 0 799.5 -2.3 99
2019-11-26 06:00:00 6.4 45 Sudoeste 67 Sudoeste 0 800.4 -1.8 99
2019-11-26 05:00:00 6.7 42 Sudoeste 64 Sudoeste 0 801.2 -1.2 99
2019-11-26 04:00:00 7 42 Sudoeste 59 Sudoeste 0 801.8 -1.1 98
2019-11-26 03:00:00 6.7 33 Sudoeste 50 Sudoeste 0 802.2 -0.8 98
2019-11-26 02:00:00 6.6 31 Sudoeste 50 Sudoeste 0 802.4 -0.7 87
2019-11-26 01:00:00 6.7 31 Sudoeste 47 Sudoeste 0 802.9 -0.2 25
2019-11-26 00:00:00 6.8 31 Sudoeste 56 Sudoeste 0 803 -0.2 41
2019-11-25 23:00:00 7.4 28 Sudoeste 44 Oeste 0 803.1 0.1 37
2019-11-25 22:00:00 7.3 29 Sudoeste 45 Sudoeste 0 803.1 0.3 35
2019-11-25 21:00:00 6 28 Sudoeste 44 Sudoeste 0 803.2 0.6 45
2019-11-25 20:00:00 5 26 Sudoeste 38 Sudoeste 0 803 0.6 65
2019-11-25 19:00:00 4.3 22 Sudoeste 42 Sudoeste 0 802.8 1 64
2019-11-25 18:00:00 6.1 26 Sudoeste 45 Sudoeste 0 802.6 0.6 44
2019-11-25 17:00:00 5 26 Sudoeste 41 Sudoeste 0 802.4 0.4 70
2019-11-25 16:00:00 7 25 Sudoeste 46 Sudoeste 0 801.8 -0.3 44
2019-11-25 15:00:00 5.9 22 Oeste 37 Oeste 0 802 0.1 79
2019-11-25 14:00:00 7.8 22 Sudoeste 38 Sudoeste 0 802 0.1 52
2019-11-25 13:00:00 5.5 23 Sudoeste 44 Sudoeste 0 802.1 0.8 80
2019-11-25 12:00:00 4.1 33 Sudoeste 47 Sudoeste 0 801.9 1 86
2019-11-25 11:00:00 3.9 26 Sudoeste 46 Sudoeste 0 801.9 1.4 98
2019-11-25 10:00:00 3.1 32 Sudoeste 49 Sudoeste 0 801.3 1.3 100
2019-11-25 09:00:00 2.9 37 Sudoeste 69 Sudoeste 0 800.9 0.7 100
2019-11-25 08:00:00 3.7 38 Oeste 56 Sudoeste 0 800.5 0.9 100
2019-11-25 07:00:00 3.4 37 Sudoeste 59 Oeste 0 800 0.8 100
2019-11-25 06:00:00 2.9 38 Sudoeste 68 Oeste 0 800.2 1.4 100
2019-11-25 05:00:00 4.2 37 Sudoeste 65 Sudoeste 0.6 799.6 1.2 100
2019-11-25 04:00:00 4.3 45 Sudoeste 82 Sudoeste 0.2 799.2 0.6 100
2019-11-25 03:00:00 4.8 58 Sudoeste 89 Sudoeste 0.2 798.8 0.5 99
2019-11-25 02:00:00 4.5 58 Sudoeste 112 Sudoeste 0.4 798.4 -0.5 99
2019-11-25 01:00:00 4.7 66 Sudoeste 98 Sudoeste 0.2 798.6 -1.1 99
2019-11-25 00:00:00 4.9 67 Sudoeste 96 Sudoeste 0 798.3 -1.3 99
2019-11-24 23:00:00 5 58 Sudoeste 90 Sudoeste 0 798.9 -1.1 99
2019-11-24 22:00:00 4.1 51 Sudoeste 77 Sudoeste 0 799.7 -0.7 100
2019-11-24 21:00:00 3.9 47 Sudoeste 68 Sudoeste 0 799.6 -0.5 100
2019-11-24 20:00:00 2.6 41 Sudoeste 65 Sudoeste 0 800 -0.4 100
2019-11-24 19:00:00 2 37 Sudoeste 56 Sudoeste 0.4 800.4 0.1 100
2019-11-24 18:00:00 2.2 37 Sudoeste 49 Sudoeste 1.6 800.1 0 100
2019-11-24 17:00:00 2.3 31 Sudoeste 46 Oeste 3.2 800.4 0.1 100
2019-11-24 16:00:00 2.2 27 Sudoeste 45 Oeste 4 800.3 -0.4 100
2019-11-24 15:00:00 2.4 25 Oeste 43 Sudoeste 4.2 800.1 -1 99
2019-11-24 14:00:00 1.6 22 Sudoeste 41 Sudoeste 1 800.3 -0.6 99
2019-11-24 13:00:00 -0.2 25 Sudoeste 33 Oeste 0 800.7 0.6 99
2019-11-24 12:00:00 -1.4 22 Sudoeste 36 Sudoeste 0 801.1 1.1 100
2019-11-24 11:00:00 -2.5 24 Sudoeste 32 Sudoeste 0 800.9 1.5 99
2019-11-24 10:00:00 -3 19 Sudoeste 30 Sudoeste 0 800.1 0.7 100
2019-11-24 09:00:00 -5.2 21 Sudoeste 30 Oeste 0 800 1.1 98
2019-11-24 08:00:00 -5.2 17 Sudoeste 37 Sudoeste 0 799.4 0.8 98
2019-11-24 07:00:00 -4.9 18 Sudoeste 36 Oeste 0 799.4 0.8 98
2019-11-24 06:00:00 -5.8 20 Sudoeste 35 Oeste 0 798.9 0.6 98
2019-11-24 05:00:00 -5.3 20 Sudoeste 34 Oeste 0 798.6 0.2 98
2019-11-24 04:00:00 -3.1 22 Sudoeste 37 Sudoeste 0 798.6 0.2 100
2019-11-24 03:00:00 -2.8 18 Sudoeste 34 Oeste 0 798.3 0.1 100
2019-11-24 02:00:00 -2.2 22 Oeste 40 Oeste 0 798.4 0.4 100
2019-11-24 01:00:00 -2.2 22 Oeste 39 Oeste 0 798.4 0.6 100
2019-11-24 00:00:00 -1.9 21 Oeste 40 Oeste 0 798.2 0.7 100
2019-11-23 23:00:00 -1.9 21 Oeste 41 Oeste 0 798 1 100
2019-11-23 22:00:00 -1.8 21 Oeste 35 Oeste 0 797.8 1.7 100
2019-11-23 21:00:00 -2.1 21 Sudoeste 32 Sudoeste 0 797.5 1.7 100
2019-11-23 20:00:00 -1.8 21 Oeste 33 Sudoeste 0 797 2.2 100
2019-11-23 19:00:00 -1.7 23 Oeste 37 Oeste 0 796.1 2 100
2019-11-23 18:00:00 -1.6 19 Oeste 35 Oeste 0 795.8 2.3 100
2019-11-23 17:00:00 -1.6 15 Oeste 31 Oeste 0 794.8 1.8 100
2019-11-23 16:00:00 -1.7 21 Oeste 40 Oeste 0 794.1 1 100
2019-11-23 15:00:00 -1.4 23 Oeste 40 Oeste 0 793.5 0.9 100
2019-11-23 14:00:00 -1.8 21 Oeste 40 Oeste 0 793 1.1 100
2019-11-23 13:00:00 -1.7 21 Oeste 43 Oeste 0 793.1 2.3 100
2019-11-23 12:00:00 -2.3 23 Oeste 40 Oeste 0 792.6 3 100
2019-11-23 11:00:00 -2.6 23 Oeste 48 Oeste 0 791.9 3.3 100
2019-11-23 10:00:00 -3 23 Oeste 50 Oeste 0 790.8 3.8 100
2019-11-23 09:00:00 -3.1 27 Oeste 46 Oeste 0 789.6 3.2 100
2019-11-23 08:00:00 -3.3 26 Oeste 56 Oeste 0 788.6 3.1 99
2019-11-23 07:00:00 -3.7 31 Oeste 53 Oeste 0 787 2.4 99
2019-11-23 06:00:00 -3.4 33 Oeste 58 Sudoeste 0 786.4 2.5 99
2019-11-23 05:00:00 -3 39 Oeste 64 Oeste 0 785.5 2 100
2019-11-23 04:00:00 -2.6 41 Oeste 72 Oeste 0 784.6 1.5 100
2019-11-23 03:00:00 -2.4 39 Oeste 71 Sudoeste 0 783.9 1.7 --
2019-11-23 02:00:00 -2.4 36 Oeste 73 Sudoeste 0 783.5 1.4 --
2019-11-23 01:00:00 -2.2 44 Oeste 73 Oeste 0 783.1 1.3 --
2019-11-23 00:00:00 -0.7 42 Oeste 73 Oeste 0 782.2 0 --
2019-11-22 23:00:00 -0.2 40 Oeste 89 Oeste 0 782.1 0.1 --
2019-11-22 22:00:00 -0.1 52 Sudoeste 81 Sudoeste 0 781.8 0.8 --
2019-11-22 21:00:00 -0.2 45 Sudoeste 80 Sudoeste 0 782.2 1 --
2019-11-22 20:00:00 0.3 43 Sudoeste 92 Sudoeste 0 782 1.2 --
2019-11-22 19:00:00 0.6 58 Sudoeste 83 Sudoeste 1.6 781 0 --
2019-11-22 18:00:00 0.7 51 Sudoeste 80 Oeste 0 781.2 0.4 100
2019-11-22 17:00:00 1.6 48 Sudoeste 83 Sudoeste 0.4 780.8 -0.8 100
2019-11-22 16:00:00 2 49 Sudoeste 94 Sudoeste 0 781 -0.6 100
2019-11-22 15:00:00 3.1 59 Sudoeste 82 Sudoeste 0.2 780.8 -2.3 100
2019-11-22 14:00:00 3.6 50 Sudoeste 99 Sudoeste 0.4 781.6 -2.5 99
2019-11-22 13:00:00 4.1 74 Sudoeste 111 Sudoeste 1.6 781.6 -2.6 99
2019-11-22 12:00:00 3.8 68 Sudoeste 95 Sudoeste 5.8 783.1 -1.3 99
2019-11-22 11:00:00 2.6 68 Sudoeste 105 Sudoeste 3.8 784.1 -1.2 99
2019-11-22 10:00:00 3.2 79 Sudoeste 107 Sudoeste 0.2 784.2 -2 97
2019-11-22 09:00:00 2.5 78 Sudoeste 108 Sudoeste 1.2 784.4 -3.1 98
2019-11-22 08:00:00 1.4 67 Sudoeste 97 Sudoeste 1.2 785.3 -2.7 99
2019-11-22 07:00:00 0.7 63 Sudoeste 88 Sudoeste 1 786.2 -3 98
2019-11-22 06:00:00 1.3 57 Sudoeste 76 Sudoeste 0.8 787.5 -2.8 94
2019-11-22 05:00:00 1.1 48 Sudoeste 79 Sudoeste 0.4 788 -2.6 91
2019-11-22 04:00:00 0.9 40 Sudoeste 60 Sudoeste 0.4 789.2 -1.7 88
2019-11-22 03:00:00 0.6 39 Sudoeste 68 Sudoeste 0 790.3 -1.4 98
2019-11-22 02:00:00 1 28 Sudoeste 68 Sudoeste 0 790.6 -1.6 91
2019-11-22 01:00:00 0.1 35 Sur 56 Sur 0 790.9 -1.2 97
2019-11-22 00:00:00 0.3 34 Sudoeste 51 Sudoeste 0 791.7 -1.1 97
2019-11-21 23:00:00 -0.1 39 Sudoeste 56 Sudoeste 0 792.2 -0.4 93
2019-11-21 22:00:00 0.5 37 Sudoeste 55 Sudoeste 0 792.1 -0.6 93
2019-11-21 21:00:00 -0.1 27 Sudoeste 49 Sudoeste 0 792.8 0.2 97
2019-11-21 20:00:00 -0.8 33 Sudoeste 47 Sudoeste 0 792.6 0.2 97
2019-11-21 19:00:00 -0.6 31 Sudoeste 46 Sudoeste 0 792.7 0.2 98
2019-11-21 18:00:00 -1 31 Sudoeste 44 Sudoeste 0 792.6 0.1 96
2019-11-21 17:00:00 -0.7 31 Sudoeste 45 Sudoeste 0 792.4 -0.2 97
2019-11-21 16:00:00 -0.7 33 Sudoeste 55 Sudoeste 0 792.5 -0.5 98
2019-11-21 15:00:00 -0.5 34 Sudoeste 46 Sudoeste 0.6 792.5 -1 100
2019-11-21 14:00:00 0 21 Sudoeste 40 Sudoeste 1 792.6 -0.6 100
2019-11-21 13:00:00 0 28 Sudoeste 44 Sudoeste 1.4 793 0 100
2019-11-21 12:00:00 -0.1 25 Sudoeste 42 Sudoeste 0.2 793.5 1 --
2019-11-21 11:00:00 0 34 Sudoeste 46 Sudoeste 0.2 793.2 1 100
2019-11-21 10:00:00 -0.2 30 Sudoeste 53 Sudoeste 0 793 1.3 --
2019-11-21 09:00:00 -0.5 41 Sudoeste 60 Sudoeste 0 792.5 0.9 100
2019-11-21 08:00:00 -0.8 36 Sudoeste 59 Sudoeste 0 792.2 0.3 100
2019-11-21 07:00:00 -0.7 40 Sudoeste 63 Sudoeste 0 791.7 -0.6 100
2019-11-21 06:00:00 -1 41 Sudoeste 68 Sudoeste 0 791.6 -0.6 100
2019-11-21 05:00:00 -1.1 42 Sudoeste 59 Sudoeste 0 791.9 -0.4 99
2019-11-21 04:00:00 -0.8 36 Sudoeste 54 Sudoeste 0 792.3 -0.4 85
2019-11-21 03:00:00 -1.2 34 Sudoeste 54 Sudoeste 0 792.2 -0.8 100
2019-11-21 02:00:00 -0.9 32 Sudoeste 54 Sudoeste 0 792.3 -0.6 96
2019-11-21 01:00:00 -1.4 35 Sudoeste 53 Sudoeste 0 792.7 -0.1 97
2019-11-21 00:00:00 -1.5 36 Sudoeste 50 Sudoeste 0 793 0.1 99
2019-11-20 23:00:00 -1.7 35 Sudoeste 49 Sudoeste 0 792.9 0.1 100
2019-11-20 22:00:00 -1.3 33 Sudoeste 49 Sudoeste 0 792.8 0.2 99
2019-11-20 21:00:00 -1 30 Sudoeste 42 Sudoeste 0 792.9 0.5 97
2019-11-20 20:00:00 -1.1 27 Sudoeste 40 Sudoeste 0 792.8 0.4 93
2019-11-20 19:00:00 -1.2 24 Sudoeste 39 Sudoeste 0 792.6 0.3 96
2019-11-20 18:00:00 -0.9 29 Sudoeste 43 Sudoeste 0 792.4 -0.1 99
2019-11-20 17:00:00 -0.5 19 Oeste 37 Sudoeste 0 792.4 -0.4 100
2019-11-20 16:00:00 0.8 22 Sudoeste 40 Sudoeste 0 792.3 -1.3 92
2019-11-20 15:00:00 0.5 27 Sudoeste 50 Sudoeste 0 792.5 -1.5 89
2019-11-20 14:00:00 0.3 36 Sudoeste 55 Sudoeste 0.2 792.8 -1.4 91
2019-11-20 13:00:00 0.2 29 Sudoeste 46 Sudoeste 0 793.6 -0.8 88
2019-11-20 12:00:00 1.2 23 Sudoeste 48 Sudoeste 0 794 -0.5 86
2019-11-20 11:00:00 0.7 27 Sudoeste 51 Sudoeste 0.2 794.2 -0.4 89
2019-11-20 10:00:00 0.5 20 Sudoeste 40 Sudoeste 0 794.4 -0.4 88
2019-11-20 09:00:00 0.7 25 Sudoeste 40 Sudoeste 0 794.5 -0.7 87
2019-11-20 08:00:00 0.4 18 Sudoeste 31 Oeste 0 794.6 -1 96
2019-11-20 07:00:00 1.6 13 Sudoeste 23 Sudoeste 0 794.8 -1.4 88
2019-11-20 06:00:00 1.3 15 Sudoeste 32 Sudoeste 0.2 795.2 -1.4 95
2019-11-20 05:00:00 0.8 21 Sudoeste 31 Sudoeste 0.4 795.6 -1.4 100
2019-11-20 04:00:00 0.7 18 Sudoeste 22 Oeste 0 796.2 -1.5 99
2019-11-20 03:00:00 0.8 14 Oeste 26 Sudoeste 0 796.6 -1.6 97
2019-11-20 02:00:00 1.4 19 Sudoeste 27 Sudoeste 0 797 -1.6 95
2019-11-20 01:00:00 1 16 Sudoeste 20 Sudoeste 0 797.7 -1.2 99
2019-11-20 00:00:00 0.8 13 Sudoeste 18 Sudoeste 0 798.2 -0.6 99
2019-11-19 23:00:00 0.6 15 Sudoeste 20 Sudoeste 0 798.6 -0.4 99
2019-11-19 22:00:00 0.7 14 Sudoeste 19 Sudoeste 0 798.9 -0.1 98
2019-11-19 21:00:00 0 14 Sudoeste 17 Sudoeste 0 798.8 -0.1 71
2019-11-19 20:00:00 0.3 12 Sudoeste 18 Sudoeste 0 799 0 74
2019-11-19 19:00:00 -0.9 14 Sudoeste 19 Sudoeste 0 799 -0.1 34
2019-11-19 18:00:00 -1.6 12 Sudoeste 20 Sudoeste 0 798.9 -0.6 50
2019-11-19 17:00:00 -0.6 14 Sudoeste 20 Sur 0 799 -0.9 43
2019-11-19 16:00:00 -0.4 14 Sudoeste 21 Sudoeste 0 799.1 -1.3 86
2019-11-19 15:00:00 0.1 9 Oeste 14 Oeste 0 799.5 -1.5 98
2019-11-19 14:00:00 1.2 3 Norte 12 Oeste 0 799.9 -1.4 95
2019-11-19 13:00:00 0.3 5 Oeste 10 Oeste 0 800.4 -0.9 96
2019-11-19 12:00:00 0.6 10 Oeste 15 Sudoeste 0 801 0 75
2019-11-19 11:00:00 -0.6 10 Sudoeste 15 Sudoeste 0 801.3 0.4 69
2019-11-19 10:00:00 -2.7 12 Sudoeste 16 Sudoeste 0 801.3 0.5 76
2019-11-19 09:00:00 -3.4 11 Sudoeste 16 Sudoeste 0 801 0.2 74
2019-11-19 08:00:00 -4.1 10 Sudoeste 17 Sudoeste 0 800.9 0 80
2019-11-19 07:00:00 -3.5 14 Sudoeste 18 Sudoeste 0 800.8 -0.3 80
2019-11-19 06:00:00 -4.2 14 Sudoeste 19 Sudoeste 0 800.8 -0.3 85
2019-11-19 05:00:00 -4.8 13 Sudoeste 22 Sudoeste 0 800.9 -0.4 85
2019-11-19 04:00:00 -5.4 13 Sudoeste 18 Sudoeste 0 801.1 -0.6 87
2019-11-19 03:00:00 -6 9 Sudoeste -- -- 0 801.1 -0.7 89
2019-11-19 02:00:00 -5.8 6 Sur -- -- 0 801.3 -0.9 89